»·PEaware :: ASA877 KSFO-KSNA

ASA877 :: KSFO-KSNA

FLIGHT INFORMATION

Flight Status: Arrived
Operator:
Alaska Airlines
More flights by this operator :: More flights under this callsign
Pilot: Anthony T. (15846)
Aircraft: MCDONNELL-DOUGLAS MD-82
(MD82)
More flights by this aircraft type
Origin: KSFO San Francisco Intl
United States
Destination: KSNA John Wayne-Orange Co
United States
More flights between these airports :: More routes between these airports
Route: +OFFSH1 MCKEY TILLT TILLT2
File this flight plan on PilotEdge
Remarks:
Altitude:
(Current/Filed)
27,000ft
Speed:
(Current/Filed)
315kts
Departed: 06-May-18 01:59 PM
Arrived: 06-May-18 03:07 PM
Distance/Time
Traveled:
323nm/1:08
Distance/Time
To Go:
Arrived

Flight Plot

Page will automatically refresh every two minutes.

Flight plan parsing failed; only flown route is shown


Map Options




Map Legend


Flown Route
Filed Route
Departure Airport
Arrival Airport
Navaid (VOR, NDB)
Fix

Horizontal Profiles

Position Reports

Time Latitude Longitude Heading Altitude Ground
Speed
06-May-18 13:47 37.611636 -122.386012 34 30ft 0kts
06-May-18 13:48 37.611636 -122.386012 34 30ft 0kts
06-May-18 13:49 37.611636 -122.386012 34 30ft 0kts
06-May-18 13:50 37.611636 -122.386012 34 30ft 0kts
06-May-18 13:51 37.611641 -122.386008 34 30ft 0kts
06-May-18 13:52 37.611641 -122.386008 34 30ft 0kts
06-May-18 13:53 37.611404 -122.386520 117 30ft 0kts
06-May-18 13:54 37.611404 -122.386520 117 30ft 0kts
06-May-18 13:55 37.611404 -122.386520 117 30ft 0kts
06-May-18 13:56 37.611222 -122.386088 118 30ft 9kts
06-May-18 13:57 37.609070 -122.383737 133 30ft 0kts
06-May-18 13:58 37.608733 -122.383077 108 30ft 14kts
06-May-18 13:59 37.635078 -122.365875 2 902ft 204kts
06-May-18 14:00 37.699288 -122.368855 320 4062ft 255kts
06-May-18 14:01 37.697897 -122.449539 244 7212ft 260kts
06-May-18 14:02 37.648697 -122.510197 201 10641ft 276kts
06-May-18 14:03 37.575464 -122.540259 200 14123ft 286kts
06-May-18 14:04 37.499095 -122.571093 201 17610ft 297kts
06-May-18 14:05 37.419207 -122.603319 202 21094ft 311kts
06-May-18 14:06 37.335460 -122.637045 203 24561ft 326kts
06-May-18 14:07 37.243069 -122.641012 178 27168ft 357kts
06-May-18 14:08 37.132470 -122.613118 174 27225ft 461kts
06-May-18 14:09 37.007915 -122.579049 172 27192ft 459kts
06-May-18 14:10 36.889482 -122.524914 136 27205ft 480kts
06-May-18 14:11 36.791773 -122.413440 144 27167ft 477kts
06-May-18 14:12 36.689634 -122.307367 144 27181ft 491kts
06-May-18 14:13 36.583005 -122.197093 144 27513ft 502kts
06-May-18 14:14 36.476109 -122.086986 144 27373ft 501kts
06-May-18 14:15 36.371475 -121.979551 144 27152ft 473kts
06-May-18 14:16 36.269856 -121.875693 144 27166ft 477kts
06-May-18 14:17 36.167652 -121.771538 144 27165ft 477kts
06-May-18 14:18 36.065496 -121.667792 144 27165ft 477kts
06-May-18 14:19 35.962967 -121.564038 144 27148ft 477kts
06-May-18 14:20 35.860473 -121.460677 144 27114ft 478kts
06-May-18 14:21 35.757773 -121.357468 144 27097ft 479kts
06-May-18 14:22 35.654945 -121.254473 145 27089ft 478kts
06-May-18 14:23 35.551969 -121.151693 145 27090ft 478kts
06-May-18 14:24 35.474562 -121.024380 96 27093ft 497kts
06-May-18 14:25 35.426054 -120.888149 148 27086ft 477kts
06-May-18 14:26 35.318563 -120.797614 149 27101ft 473kts
06-May-18 14:27 35.210065 -120.707839 149 27101ft 473kts
06-May-18 14:28 35.101338 -120.618157 149 27104ft 473kts
06-May-18 14:29 34.993032 -120.529127 149 27110ft 473kts
06-May-18 14:30 34.884150 -120.439924 149 27041ft 476kts
06-May-18 14:31 34.773392 -120.349443 149 27002ft 489kts
06-May-18 14:32 34.661797 -120.258599 149 26887ft 488kts
06-May-18 14:33 34.549293 -120.167317 149 26779ft 488kts
06-May-18 14:34 34.436762 -120.076315 149 26673ft 486kts
06-May-18 14:35 34.324623 -119.985931 149 26570ft 486kts
06-May-18 14:36 34.212686 -119.896002 149 26470ft 485kts
06-May-18 14:37 34.100680 -119.806039 147 26365ft 486kts
06-May-18 14:38 34.019608 -119.674366 123 26198ft 496kts
06-May-18 14:39 33.949572 -119.535268 123 24150ft 472kts
06-May-18 14:40 33.883450 -119.403268 122 22149ft 451kts
06-May-18 14:41 33.821294 -119.277147 123 20158ft 434kts
06-May-18 14:42 33.760965 -119.155092 123 18158ft 420kts
06-May-18 14:43 33.702059 -119.036322 123 15922ft 407kts
06-May-18 14:44 33.645972 -118.923559 123 13432ft 386kts
06-May-18 14:45 33.591903 -118.815285 122 11150ft 368kts
06-May-18 14:46 33.559931 -118.699044 103 11112ft 377kts
06-May-18 14:47 33.561108 -118.576997 80 10583ft 358kts
06-May-18 14:48 33.577257 -118.463631 80 8586ft 339kts
06-May-18 14:49 33.592442 -118.353613 80 7086ft 328kts
06-May-18 14:50 33.606761 -118.248699 81 7049ft 311kts
06-May-18 14:51 33.620658 -118.153249 81 7064ft 286kts
06-May-18 14:52 33.634835 -118.060636 81 6320ft 275kts
06-May-18 14:53 33.647381 -117.973911 81 5191ft 253kts
06-May-18 14:54 33.659344 -117.900372 50 5030ft 228kts
06-May-18 14:55 33.717894 -117.878383 11 5064ft 226kts
06-May-18 14:56 33.773306 -117.863753 11 5052ft 190kts
06-May-18 14:57 33.825471 -117.849678 11 5058ft 197kts
06-May-18 14:58 33.877395 -117.835463 11 5051ft 200kts
06-May-18 14:59 33.931674 -117.820336 23 5035ft 205kts
06-May-18 15:00 33.920443 -117.770579 150 5053ft 197kts
06-May-18 15:01 33.872830 -117.750532 189 5058ft 194kts
06-May-18 15:02 33.822390 -117.771145 224 3645ft 201kts
06-May-18 15:03 33.780275 -117.802435 208 2572ft 178kts
06-May-18 15:03 33.745448 -117.824425 206 1690ft 171kts
06-May-18 15:05 33.700866 -117.853642 206 662ft 157kts
06-May-18 15:06 33.672075 -117.871124 207 63ft 48kts
06-May-18 15:07 33.669263 -117.871710 133 63ft 0kts
06-May-18 15:08 33.669102 -117.871175 81 63ft 10kts
06-May-18 15:08 33.671008 -117.869008 40 63ft 16kts
06-May-18 15:09 33.675067 -117.865875 27 63ft 12kts
06-May-18 15:10 33.677244 -117.864494 27 63ft 8kts
06-May-18 15:11 33.678743 -117.863087 93 63ft 2kts
06-May-18 15:12 33.678722 -117.862828 96 63ft 0kts
06-May-18 15:13 33.678722 -117.862828 96 63ft 0kts

Navigation Log

Ident Type
Flight plan parsing failed, navigation log unavailable